Time;durP1;ratioP1;P1;durP2;ratioP2;P2;SDS_P1;SDS_P2;PMS_P1;PMS_P2;Temp;Humidity;BMP_temperature;BMP_pressure;BME280_temperature;BME280_humidity;BME280_pressure;Samples;Min_cycle;Max_cycle;Signal;HPM_P1;HPM_P2
2022/10/10 00:02:14;;;;;;;4.73;3.20;;;12.90;1.00;;;;;;5089274;28;20661;-70
2022/10/10 00:04:39;;;;;;;5.43;3.17;;;12.90;1.00;;;;;;5083104;28;20191;-71
2022/10/10 00:07:05;;;;;;;4.67;3.27;;;12.90;1.00;;;;;;5089364;28;20184;-73
2022/10/10 00:09:31;;;;;;;4.47;2.90;;;12.90;1.00;;;;;;5088037;28;20452;-70
2022/10/10 00:11:56;;;;;;;3.20;2.80;;;12.90;1.00;;;;;;5089005;28;20176;-71
2022/10/10 00:14:22;;;;;;;4.23;3.13;;;12.90;1.00;;;;;;5088383;28;20258;-70
2022/10/10 00:16:47;;;;;;;4.10;3.10;;;12.90;1.00;;;;;;5090788;28;20180;-71
2022/10/10 00:19:13;;;;;;;5.03;3.10;;;12.90;1.00;;;;;;5094605;28;20192;-71
2022/10/10 00:21:39;;;;;;;5.07;3.40;;;12.90;1.00;;;;;;5088576;28;20260;-71
2022/10/10 00:24:05;;;;;;;6.10;3.10;;;12.80;1.00;;;;;;5084974;28;20191;-71
2022/10/10 00:26:30;;;;;;;6.90;3.33;;;12.80;1.00;;;;;;5089260;28;20192;-72
2022/10/10 00:28:56;;;;;;;5.00;3.43;;;12.80;1.00;;;;;;5083592;28;20460;-70
2022/10/10 00:31:21;;;;;;;4.33;2.90;;;12.70;1.00;;;;;;5088517;28;20167;-71
2022/10/10 00:33:47;;;;;;;5.57;3.27;;;12.70;1.00;;;;;;5088084;28;20180;-71
2022/10/10 00:36:13;;;;;;;3.50;2.60;;;12.70;1.00;;;;;;5087325;28;20202;-70
2022/10/10 00:38:39;;;;;;;4.00;3.00;;;12.70;1.00;;;;;;5085555;28;20697;-71
2022/10/10 00:41:05;;;;;;;7.07;3.10;;;12.60;1.00;;;;;;5088095;28;20508;-69
2022/10/10 00:43:31;;;;;;;5.97;3.43;;;12.60;1.00;;;;;;5087928;28;20196;-71
2022/10/10 00:45:57;;;;;;;5.67;2.90;;;12.60;1.00;;;;;;5085703;28;20218;-70
2022/10/10 00:48:34;;;;;;;5.77;3.43;;;12.60;1.00;;;;;;5079885;28;20804;-72
2022/10/10 00:51:10;;;;;;;4.93;3.30;;;12.60;1.00;;;;;;5088089;28;20807;-71
2022/10/10 00:53:40;;;;;;;5.67;2.90;;;12.50;1.00;;;;;;5083692;28;20427;-70
2022/10/10 00:56:07;;;;;;;8.60;3.20;;;12.50;1.00;;;;;;5086497;28;20417;-71
2022/10/10 00:58:35;;;;;;;5.20;3.50;;;12.50;1.00;;;;;;5087541;28;20433;-68
2022/10/10 01:01:00;;;;;;;4.47;2.90;;;12.50;1.00;;;;;;5077244;28;20417;-74
2022/10/10 01:03:26;;;;;;;4.43;3.40;;;12.40;1.00;;;;;;5087790;28;20433;-72
2022/10/10 01:05:52;;;;;;;6.87;3.20;;;12.40;1.00;;;;;;5088638;28;20199;-70
2022/10/10 01:08:19;;;;;;;5.53;3.27;;;12.40;1.00;;;;;;5087499;28;20179;-70
2022/10/10 01:11:13;;;;;;;8.40;3.20;;;12.40;1.00;;;;;;5086921;28;20200;-71
2022/10/10 01:13:51;;;;;;;5.37;3.60;;;12.40;1.00;;;;;;5085303;28;20432;-69
2022/10/10 01:16:33;;;;;;;8.80;3.33;;;12.40;1.00;;;;;;5089309;28;20414;-71
2022/10/10 01:19:16;;;;;;;8.93;3.47;;;12.30;1.00;;;;;;5094442;28;20681;-70
2022/10/10 01:22:12;;;;;;;10.17;3.67;;;12.30;1.00;;;;;;5083751;28;20433;-71
2022/10/10 01:25:05;;;;;;;4.73;3.43;;;12.30;1.00;;;;;;5084864;28;20516;-71
2022/10/10 01:27:41;;;;;;;4.60;3.30;;;12.30;1.00;;;;;;5088188;28;20862;-68
2022/10/10 01:30:10;;;;;;;3.80;3.40;;;12.20;1.00;;;;;;5087239;28;20499;-71
2022/10/10 01:32:44;;;;;;;6.43;3.10;;;12.20;1.00;;;;;;5087254;28;20430;-68
2022/10/10 01:35:22;;;;;;;6.43;3.00;;;12.10;1.00;;;;;;5087493;28;20796;-70
2022/10/10 01:38:08;;;;;;;9.97;3.50;;;12.10;1.00;;;;;;5088440;28;20920;-70
2022/10/10 01:40:43;;;;;;;7.37;3.10;;;12.00;1.00;;;;;;5083290;28;20545;-68
2022/10/10 01:43:10;;;;;;;5.07;3.37;;;12.00;1.00;;;;;;5087429;28;20497;-71
2022/10/10 01:45:36;;;;;;;9.60;3.67;;;12.00;1.00;;;;;;5088121;28;20448;-71
2022/10/10 01:48:05;;;;;;;6.63;3.70;;;12.00;1.00;;;;;;5088618;28;20433;-71
2022/10/10 01:50:45;;;;;;;4.27;3.20;;;11.90;1.00;;;;;;5091878;28;20188;-72
2022/10/10 01:53:21;;;;;;;8.13;3.57;;;11.90;1.00;;;;;;5090638;28;20448;-72
2022/10/10 01:55:53;;;;;;;9.37;3.50;;;11.90;1.00;;;;;;5086016;28;20448;-71
2022/10/10 01:58:47;;;;;;;8.83;3.63;;;11.80;1.00;;;;;;5092032;28;20406;-70
2022/10/10 02:01:25;;;;;;;10.63;3.80;;;11.70;1.00;;;;;;5089765;28;20434;-71
2022/10/10 02:04:23;;;;;;;4.77;3.27;;;11.70;1.00;;;;;;5092250;28;20410;-72
2022/10/10 02:06:54;;;;;;;7.27;3.53;;;11.70;1.00;;;;;;5086111;28;20469;-71
2022/10/10 02:09:27;;;;;;;8.90;3.53;;;11.70;1.00;;;;;;5072407;28;20478;-71
2022/10/10 02:11:54;;;;;;;6.43;3.10;;;11.70;1.00;;;;;;5091084;28;20417;-71
2022/10/10 02:14:23;;;;;;;5.43;3.63;;;11.70;1.00;;;;;;5090136;28;20410;-70
2022/10/10 02:16:51;;;;;;;4.70;3.60;;;11.60;1.00;;;;;;5090538;28;20519;-71
2022/10/10 02:19:20;;;;;;;5.20;3.67;;;11.50;1.00;;;;;;5104678;28;20437;-69
2022/10/10 02:21:47;;;;;;;7.10;3.63;;;11.40;1.00;;;;;;5088897;28;20410;-72
2022/10/10 02:24:13;;;;;;;4.87;3.70;;;11.30;1.00;;;;;;5081614;28;20477;-70
2022/10/10 02:26:42;;;;;;;6.50;3.50;;;11.30;1.00;;;;;;5090441;28;20824;-70
2022/10/10 02:29:17;;;;;;;5.87;3.57;;;11.30;1.00;;;;;;5088992;28;20461;-72
2022/10/10 02:32:04;;;;;;;3.60;3.30;;;11.30;1.00;;;;;;5090343;28;20534;-71
2022/10/10 02:34:35;;;;;;;5.07;3.20;;;11.20;1.00;;;;;;5084247;28;20532;-71
2022/10/10 02:37:05;;;;;;;10.43;3.23;;;11.10;1.00;;;;;;5083238;28;20410;-70
2022/10/10 02:39:35;;;;;;;9.33;3.73;;;11.10;1.00;;;;;;5089190;28;20527;-71
2022/10/10 02:42:03;;;;;;;6.27;3.70;;;11.10;1.00;;;;;;5091176;28;20414;-71
2022/10/10 02:44:29;;;;;;;6.10;3.10;;;11.10;1.00;;;;;;5088951;28;20426;-71
2022/10/10 02:46:55;;;;;;;6.90;3.43;;;11.10;1.00;;;;;;5091813;28;20839;-71
2022/10/10 02:49:31;;;;;;;4.07;3.67;;;11.10;1.00;;;;;;5089557;28;20506;-72
2022/10/10 02:51:57;;;;;;;4.90;3.40;;;10.90;1.00;;;;;;5077746;28;20190;-74
2022/10/10 02:54:23;;;;;;;4.67;3.30;;;10.80;1.00;;;;;;5086257;28;20509;-71
2022/10/10 02:56:48;;;;;;;6.73;3.43;;;10.80;1.00;;;;;;5090759;28;20707;-70
2022/10/10 02:59:14;;;;;;;7.30;3.27;;;10.80;1.00;;;;;;5086642;28;20446;-70
2022/10/10 03:01:39;;;;;;;5.07;3.17;;;10.80;1.00;;;;;;5090635;28;20175;-73
2022/10/10 03:04:05;;;;;;;8.33;3.47;;;10.80;1.00;;;;;;5089656;28;20184;-69
2022/10/10 03:06:30;;;;;;;6.00;3.73;;;10.90;1.00;;;;;;5090869;28;20261;-69
2022/10/10 03:08:56;;;;;;;6.00;3.53;;;10.90;1.00;;;;;;5087859;28;20206;-69
2022/10/10 03:11:21;;;;;;;5.70;3.80;;;10.80;1.00;;;;;;5089516;28;20205;-69
2022/10/10 03:13:47;;;;;;;9.17;4.63;;;10.90;1.00;;;;;;5088965;28;20186;-69
2022/10/10 03:16:13;;;;;;;9.13;4.53;;;10.90;1.00;;;;;;5095819;28;20175;-69
2022/10/10 03:18:38;;;;;;;12.47;3.80;;;10.90;1.00;;;;;;5091770;28;20176;-73
2022/10/10 03:21:04;;;;;;;4.30;3.00;;;10.80;1.00;;;;;;5089482;28;20180;-69
2022/10/10 03:23:30;;;;;;;7.63;3.83;;;10.80;1.00;;;;;;5084133;28;20207;-70
2022/10/10 03:25:56;;;;;;;4.77;3.33;;;10.80;1.00;;;;;;5087370;28;20501;-69
2022/10/10 03:28:22;;;;;;;6.47;4.20;;;10.80;1.00;;;;;;5084405;28;20453;-69
2022/10/10 03:30:47;;;;;;;3.70;3.40;;;10.80;1.00;;;;;;5089960;28;20213;-70
2022/10/10 03:33:13;;;;;;;9.67;3.70;;;10.80;1.00;;;;;;5087294;28;20198;-70
2022/10/10 03:35:39;;;;;;;4.77;3.60;;;10.80;1.00;;;;;;5090400;28;20551;-70
2022/10/10 03:38:05;;;;;;;10.73;3.67;;;10.70;1.00;;;;;;5088542;28;20200;-70
2022/10/10 03:40:31;;;;;;;6.00;3.83;;;10.70;1.00;;;;;;5090208;28;20203;-69
2022/10/10 03:42:57;;;;;;;4.33;3.87;;;10.70;1.00;;;;;;5085346;28;20421;-69
2022/10/10 03:45:23;;;;;;;5.63;3.80;;;10.60;1.00;;;;;;5089435;28;20176;-70
2022/10/10 03:47:48;;;;;;;4.53;3.20;;;10.60;1.00;;;;;;5096305;28;20584;-70
2022/10/10 03:50:14;;;;;;;4.67;3.20;;;10.60;1.00;;;;;;5089942;28;20241;-69
2022/10/10 03:52:39;;;;;;;6.70;3.90;;;10.60;1.00;;;;;;5088317;28;20182;-69
2022/10/10 03:55:05;;;;;;;4.77;3.60;;;10.60;1.00;;;;;;5087971;28;20175;-69
2022/10/10 03:57:31;;;;;;;10.00;4.03;;;10.50;1.00;;;;;;5081358;28;20177;-70
2022/10/10 03:59:56;;;;;;;5.07;3.90;;;10.50;1.00;;;;;;5088887;28;20440;-71
2022/10/10 04:02:22;;;;;;;4.93;3.23;;;10.50;1.00;;;;;;5087582;28;20546;-69
2022/10/10 04:04:47;;;;;;;6.13;3.80;;;10.50;1.00;;;;;;5089651;28;20635;-69
2022/10/10 04:07:13;;;;;;;5.40;3.83;;;10.40;1.00;;;;;;5081037;28;20210;-70
2022/10/10 04:09:38;;;;;;;4.97;3.73;;;10.40;1.00;;;;;;5087625;28;20640;-69
2022/10/10 04:12:04;;;;;;;4.43;3.50;;;10.30;1.00;;;;;;5086372;28;20186;-69
2022/10/10 04:14:29;;;;;;;4.83;3.90;;;10.30;1.00;;;;;;5088054;28;20655;-69
2022/10/10 04:16:55;;;;;;;12.00;3.70;;;10.30;1.00;;;;;;5088931;28;20217;-70
2022/10/10 04:19:21;;;;;;;5.03;3.37;;;10.30;1.00;;;;;;5104226;28;20201;-69
2022/10/10 04:21:46;;;;;;;6.07;4.07;;;10.20;1.00;;;;;;5087445;28;20187;-69
2022/10/10 04:24:12;;;;;;;6.23;3.70;;;10.20;1.00;;;;;;5086585;28;20594;-69
2022/10/10 04:26:37;;;;;;;6.20;4.03;;;10.20;1.00;;;;;;5087270;28;20200;-69
2022/10/10 04:29:03;;;;;;;7.77;4.57;;;10.20;1.00;;;;;;5087901;28;20246;-70
2022/10/10 04:31:28;;;;;;;7.70;3.93;;;10.30;1.00;;;;;;5080397;28;20260;-70
2022/10/10 04:33:54;;;;;;;4.63;3.67;;;10.40;1.00;;;;;;5088616;28;20183;-70
2022/10/10 04:36:19;;;;;;;6.00;3.40;;;10.40;1.00;;;;;;5087678;28;20195;-70
2022/10/10 04:38:45;;;;;;;3.77;3.27;;;10.40;1.00;;;;;;5081951;28;20184;-70
2022/10/10 04:41:10;;;;;;;6.83;3.80;;;10.40;1.00;;;;;;5086655;28;20291;-69
2022/10/10 04:43:36;;;;;;;4.50;3.70;;;10.40;1.00;;;;;;5087567;28;20208;-69
2022/10/10 04:46:02;;;;;;;5.77;3.30;;;10.30;1.00;;;;;;5092051;28;20209;-70
2022/10/10 04:48:27;;;;;;;6.43;3.87;;;10.30;1.00;;;;;;5085359;28;20233;-69
2022/10/10 04:50:55;;;;;;;4.83;3.77;;;10.20;1.00;;;;;;5088436;28;20228;-69
2022/10/10 04:53:21;;;;;;;9.80;4.00;;;10.20;1.00;;;;;;5087337;28;20191;-69
2022/10/10 04:55:46;;;;;;;6.30;3.87;;;10.20;1.00;;;;;;5086554;28;20510;-69
2022/10/10 04:58:13;;;;;;;8.10;4.20;;;10.20;1.00;;;;;;5081592;28;20507;-69
2022/10/10 05:00:39;;;;;;;4.13;3.63;;;10.10;1.00;;;;;;5087634;28;20200;-70
2022/10/10 05:03:04;;;;;;;8.20;3.83;;;10.10;1.00;;;;;;5088216;28;20834;-69
2022/10/10 05:05:31;;;;;;;4.17;3.77;;;10.10;1.00;;;;;;5085141;28;20422;-69
2022/10/10 05:07:56;;;;;;;6.80;4.10;;;10.10;1.00;;;;;;5079970;28;20191;-70
2022/10/10 05:10:23;;;;;;;10.17;3.67;;;10.10;1.00;;;;;;5087610;28;20868;-69
2022/10/10 05:12:49;;;;;;;7.60;4.20;;;10.00;1.00;;;;;;5087149;28;20203;-69
2022/10/10 05:15:14;;;;;;;8.40;4.10;;;10.00;1.00;;;;;;5086832;28;20434;-70
2022/10/10 05:17:40;;;;;;;9.43;4.63;;;10.00;1.00;;;;;;5085881;28;20231;-69
2022/10/10 05:20:05;;;;;;;4.83;4.07;;;10.00;1.00;;;;;;5078566;28;20765;-69
2022/10/10 05:22:31;;;;;;;8.23;4.27;;;10.00;1.00;;;;;;5087675;28;20192;-70
2022/10/10 05:24:58;;;;;;;6.70;4.33;;;10.00;1.00;;;;;;5090102;28;20269;-69
2022/10/10 05:27:24;;;;;;;5.60;3.77;;;10.00;1.00;;;;;;5090596;28;20229;-69
2022/10/10 05:29:50;;;;;;;8.63;4.30;;;9.90;1.00;;;;;;5090206;28;20464;-69
2022/10/10 05:32:15;;;;;;;8.53;4.67;;;10.00;1.00;;;;;;5090632;28;20417;-70
2022/10/10 05:34:41;;;;;;;8.17;4.20;;;9.90;1.00;;;;;;5090501;28;20211;-69
2022/10/10 05:37:07;;;;;;;6.70;3.70;;;9.90;1.00;;;;;;5091976;28;20207;-69
2022/10/10 05:39:32;;;;;;;4.47;3.73;;;10.00;1.00;;;;;;5089503;28;20214;-70
2022/10/10 05:41:58;;;;;;;5.73;4.13;;;10.00;1.00;;;;;;5091044;28;20175;-69
2022/10/10 05:44:23;;;;;;;6.80;4.03;;;9.90;1.00;;;;;;5087443;28;20191;-71
2022/10/10 05:46:49;;;;;;;4.87;3.70;;;9.90;1.00;;;;;;5093578;28;20199;-72
2022/10/10 05:49:14;;;;;;;4.67;3.97;;;10.00;1.00;;;;;;5096290;28;20198;-71
2022/10/10 05:51:40;;;;;;;5.40;4.13;;;10.10;1.00;;;;;;5091611;28;20257;-70
2022/10/10 05:54:05;;;;;;;7.30;4.40;;;10.20;1.00;;;;;;5086471;28;20168;-71
2022/10/10 05:56:31;;;;;;;9.83;4.90;;;10.40;1.00;;;;;;5089999;28;20187;-73
2022/10/10 05:58:56;;;;;;;6.57;4.40;;;10.40;1.00;;;;;;5085685;28;20200;-73
2022/10/10 06:01:22;;;;;;;6.73;4.73;;;10.40;1.00;;;;;;5090700;28;20256;-72
2022/10/10 06:03:51;;;;;;;6.37;4.73;;;10.50;1.00;;;;;;5090296;28;20202;-72
2022/10/10 06:06:17;;;;;;;7.17;5.00;;;10.50;1.00;;;;;;5089627;28;20279;-71
2022/10/10 06:08:43;;;;;;;9.20;4.77;;;10.60;1.00;;;;;;5083246;28;20449;-72
2022/10/10 06:11:10;;;;;;;7.90;4.80;;;10.70;1.00;;;;;;5081979;28;20934;-75
2022/10/10 06:13:37;;;;;;;7.97;4.57;;;10.90;1.00;;;;;;5084092;28;20241;-75
2022/10/10 06:16:03;;;;;;;5.77;4.27;;;11.10;1.00;;;;;;5063396;28;20430;-76
2022/10/10 06:18:29;;;;;;;11.87;4.27;;;11.40;1.00;;;;;;5086421;28;20965;-75
2022/10/10 06:20:54;;;;;;;7.07;4.10;;;11.40;1.00;;;;;;5069486;28;20243;-76
2022/10/10 06:23:20;;;;;;;10.43;4.70;;;11.60;1.00;;;;;;5072797;28;20185;-76
2022/10/10 06:25:46;;;;;;;5.60;4.33;;;12.10;1.00;;;;;;5083143;28;20188;-74
2022/10/10 06:28:11;;;;;;;6.23;4.47;;;12.00;1.00;;;;;;5078379;28;20179;-75
2022/10/10 06:30:43;;;;;;;7.60;5.43;;;12.00;1.00;;;;;;5089374;28;20215;-77
2022/10/10 06:33:10;;;;;;;7.43;4.53;;;12.00;1.00;;;;;;5082107;28;20180;-77
2022/10/10 06:35:45;;;;;;;27.33;12.90;;;11.80;1.00;;;;;;5086771;28;20471;-74
2022/10/10 06:38:12;;;;;;;17.70;10.20;;;11.80;1.00;;;;;;5078774;28;20422;-75
2022/10/10 06:40:38;;;;;;;12.53;7.80;;;11.80;1.00;;;;;;5086873;28;20446;-75
2022/10/10 06:43:09;;;;;;;6.60;4.20;;;11.80;1.00;;;;;;5084150;28;20442;-78
2022/10/10 06:45:36;;;;;;;8.30;5.30;;;11.90;1.00;;;;;;5082577;28;20455;-79
2022/10/10 06:48:02;;;;;;;11.87;4.23;;;12.00;1.00;;;;;;5088683;28;20525;-73
2022/10/10 06:50:27;;;;;;;5.80;4.77;;;12.00;1.00;;;;;;5083074;28;20905;-72
2022/10/10 06:52:53;;;;;;;13.67;4.90;;;12.10;1.00;;;;;;5084456;28;20187;-73
2022/10/10 06:55:18;;;;;;;7.20;4.63;;;12.10;1.00;;;;;;5077196;28;20172;-76
2022/10/10 06:57:44;;;;;;;6.87;4.60;;;12.20;1.00;;;;;;5087159;28;20282;-75
2022/10/10 07:00:11;;;;;;;5.70;4.30;;;12.30;1.00;;;;;;5089612;28;20255;-75
2022/10/10 07:02:39;;;;;;;10.10;4.93;;;12.30;1.00;;;;;;5081243;28;20271;-75
2022/10/10 07:05:06;;;;;;;7.17;4.47;;;12.50;1.00;;;;;;5091130;28;20402;-75
2022/10/10 07:07:32;;;;;;;12.23;4.70;;;12.60;1.00;;;;;;5083922;28;20470;-75
2022/10/10 07:09:57;;;;;;;11.10;5.37;;;12.60;1.00;;;;;;5078489;28;20502;-76
2022/10/10 07:12:23;;;;;;;7.57;4.80;;;12.70;1.00;;;;;;5092591;28;20308;-75
2022/10/10 07:14:51;;;;;;;10.13;5.43;;;12.70;1.00;;;;;;5088668;28;20173;-78
2022/10/10 07:17:17;;;;;;;8.47;5.13;;;12.80;1.00;;;;;;5082973;28;20204;-76
2022/10/10 07:19:42;;;;;;;5.70;4.60;;;13.00;1.00;;;;;;5082302;28;20477;-77
2022/10/10 07:22:08;;;;;;;8.67;5.40;;;13.20;1.00;;;;;;5077747;28;20187;-76
2022/10/10 07:24:33;;;;;;;7.20;5.57;;;13.30;1.00;;;;;;5080905;28;20214;-74
2022/10/10 07:26:59;;;;;;;10.00;4.70;;;13.40;1.00;;;;;;5091094;28;20195;-73
2022/10/10 07:29:26;;;;;;;5.77;5.00;;;13.50;1.00;;;;;;5080323;28;20223;-75
2022/10/10 07:31:52;;;;;;;7.73;5.67;;;13.70;1.00;;;;;;5085593;28;20176;-75
2022/10/10 07:34:17;;;;;;;5.87;4.67;;;13.80;1.00;;;;;;5089512;28;20935;-73
2022/10/10 07:36:47;;;;;;;12.90;6.93;;;13.80;1.00;;;;;;5089336;28;20668;-75
2022/10/10 07:39:13;;;;;;;11.30;6.90;;;13.70;1.00;;;;;;5087613;28;20188;-78
2022/10/10 07:41:38;;;;;;;7.30;6.20;;;13.70;1.00;;;;;;5084462;28;20418;-74
2022/10/10 07:44:04;;;;;;;10.80;6.20;;;13.70;1.00;;;;;;5083885;28;20173;-74
2022/10/10 07:46:32;;;;;;;7.93;5.80;;;13.80;1.00;;;;;;5079220;28;20701;-75
2022/10/10 07:48:57;;;;;;;10.27;5.43;;;13.90;1.00;;;;;;5084350;28;20196;-77
2022/10/10 07:51:23;;;;;;;7.17;5.70;;;14.00;1.00;;;;;;5078027;28;20436;-74
2022/10/10 07:53:51;;;;;;;11.37;5.90;;;14.10;1.00;;;;;;5075902;28;20168;-75
2022/10/10 07:56:16;;;;;;;8.73;5.17;;;14.20;1.00;;;;;;5080833;28;20180;-76
2022/10/10 07:58:42;;;;;;;10.77;5.90;;;14.30;1.00;;;;;;5078875;28;20433;-75
2022/10/10 08:01:10;;;;;;;7.63;5.10;;;14.30;1.00;;;;;;5082322;28;20180;-74
2022/10/10 08:03:36;;;;;;;8.63;5.07;;;14.40;1.00;;;;;;5084418;28;20211;-74
2022/10/10 08:06:06;;;;;;;9.90;5.10;;;14.50;1.00;;;;;;5089819;28;20454;-76
2022/10/10 08:08:33;;;;;;;8.77;5.50;;;14.60;1.00;;;;;;5083290;28;20473;-75
2022/10/10 08:10:58;;;;;;;10.27;5.10;;;14.70;1.00;;;;;;5090629;28;20940;-79
2022/10/10 08:13:25;;;;;;;8.37;5.60;;;14.80;1.00;;;;;;5086713;28;20441;-75
2022/10/10 08:15:51;;;;;;;9.67;5.50;;;15.00;1.00;;;;;;5088549;28;20214;-78
2022/10/10 08:18:17;;;;;;;10.03;5.30;;;15.10;1.00;;;;;;5085504;28;20871;-74
2022/10/10 08:20:42;;;;;;;7.90;5.40;;;15.10;1.00;;;;;;5091429;28;20245;-74
2022/10/10 08:23:08;;;;;;;7.17;5.10;;;15.20;1.00;;;;;;5083779;28;20203;-75
2022/10/10 08:25:33;;;;;;;6.33;4.70;;;15.40;1.00;;;;;;5112092;28;20202;-76
2022/10/10 08:27:59;;;;;;;9.43;4.73;;;15.60;1.00;;;;;;5109067;28;20174;-75
2022/10/10 08:30:25;;;;;;;10.90;4.80;;;15.90;1.00;;;;;;5081122;28;20569;-75
2022/10/10 08:32:50;;;;;;;7.33;4.60;;;16.80;1.00;;;;;;5090350;28;20321;-75
2022/10/10 08:35:16;;;;;;;7.07;5.73;;;17.60;1.00;;;;;;5090270;28;20267;-78
2022/10/10 08:37:41;;;;;;;8.70;6.00;;;17.80;1.00;;;;;;5082631;28;20195;-75
2022/10/10 08:40:09;;;;;;;7.00;5.60;;;18.20;1.00;;;;;;5076998;28;20203;-76
2022/10/10 08:42:42;;;;;;;8.10;6.33;;;19.10;1.00;;;;;;5081985;28;20180;-77
2022/10/10 08:45:12;;;;;;;8.33;5.93;;;20.70;1.00;;;;;;5072669;28;20422;-76
2022/10/10 08:47:51;;;;;;;10.50;5.80;;;20.90;1.00;;;;;;5083800;28;20465;-78
2022/10/10 08:50:33;;;;;;;12.37;7.20;;;21.40;1.00;;;;;;5079139;28;20482;-79
2022/10/10 08:53:18;;;;;;;15.00;6.67;;;21.00;1.00;;;;;;5088685;28;20424;-76
2022/10/10 08:55:45;;;;;;;11.23;6.37;;;20.40;1.00;;;;;;5086524;28;20889;-74
2022/10/10 08:58:24;;;;;;;11.40;6.47;;;20.10;1.00;;;;;;5086687;28;20426;-75
2022/10/10 09:00:58;;;;;;;11.37;6.10;;;19.60;1.00;;;;;;5087239;28;20464;-78
2022/10/10 09:03:32;;;;;;;12.73;6.23;;;19.40;1.00;;;;;;5087381;28;20918;-76
2022/10/10 09:06:19;;;;;;;9.33;6.03;;;20.00;1.00;;;;;;5084798;28;20465;-77
2022/10/10 09:09:20;;;;;;;9.30;6.20;;;20.20;1.00;;;;;;5089043;28;20425;-75
2022/10/10 09:11:48;;;;;;;11.37;7.07;;;19.90;1.00;;;;;;5077412;28;20815;-75
2022/10/10 09:14:32;;;;;;;11.10;6.47;;;21.10;1.00;;;;;;5077985;28;20414;-74
2022/10/10 09:17:31;;;;;;;15.07;7.10;;;22.80;1.00;;;;;;5096957;28;20421;-73
2022/10/10 09:20:21;;;;;;;9.80;6.33;;;24.20;1.00;;;;;;5084621;28;20437;-81
2022/10/10 09:23:16;;;;;;;7.43;5.87;;;24.40;1.00;;;;;;5090391;28;20457;-79
2022/10/10 09:25:49;;;;;;;11.50;6.27;;;24.70;1.00;;;;;;5084011;28;20504;-75
2022/10/10 09:28:31;;;;;;;10.47;6.07;;;26.00;1.00;;;;;;5094603;28;20454;-78
2022/10/10 09:30:59;;;;;;;8.70;5.70;;;26.80;1.00;;;;;;5077041;28;20484;-75
2022/10/10 09:33:33;;;;;;;11.67;5.53;;;27.50;1.00;;;;;;5074384;28;20957;-79
2022/10/10 09:36:04;;;;;;;9.40;5.60;;;28.30;1.00;;;;;;5087927;28;20175;-76
2022/10/10 09:38:40;;;;;;;9.57;6.07;;;28.80;1.00;;;;;;5083191;28;20207;-77
2022/10/10 09:41:13;;;;;;;9.30;6.33;;;29.30;1.00;;;;;;5082620;28;20191;-75
2022/10/10 09:43:40;;;;;;;8.48;6.43;;;30.10;1.00;;;;;;5086412;28;20258;-75
2022/10/10 09:46:06;;;;;;;9.43;5.90;;;30.60;1.00;;;;;;5081417;28;20681;-77
2022/10/10 09:48:38;;;;;;;9.10;6.00;;;30.90;1.00;;;;;;5090123;28;20215;-79
2022/10/10 09:51:06;;;;;;;10.10;6.15;;;31.30;1.00;;;;;;5075153;28;20196;-76
2022/10/10 09:53:32;;;;;;;7.38;5.40;;;31.00;1.00;;;;;;5080883;28;20172;-80
2022/10/10 09:55:59;;;;;;;10.88;5.45;;;31.50;1.00;;;;;;5088947;28;20179;-74
2022/10/10 09:58:42;;;;;;;7.38;5.20;;;32.10;1.00;;;;;;5086973;28;20414;-74
2022/10/10 10:01:22;;;;;;;7.60;5.63;;;32.10;1.00;;;;;;5083040;28;20662;-76
2022/10/10 10:04:13;;;;;;;9.07;5.45;;;33.00;1.00;;;;;;5094486;28;20222;-75
2022/10/10 10:06:46;;;;;;;8.38;5.10;;;33.70;1.00;;;;;;5092587;28;20271;-78
2022/10/10 10:09:20;;;;;;;8.02;5.63;;;34.00;1.00;;;;;;5110433;28;20192;-75
2022/10/10 10:11:52;;;;;;;8.15;5.28;;;33.70;1.00;;;;;;5082410;28;20506;-75
2022/10/10 10:14:25;;;;;;;10.02;5.03;;;31.70;1.00;;;;;;5083200;28;20228;-75
2022/10/10 10:16:52;;;;;;;7.05;5.55;;;32.50;1.00;;;;;;5095381;28;20179;-76
2022/10/10 10:19:35;;;;;;;10.68;4.97;;;31.90;1.00;;;;;;5098728;28;20194;-77
2022/10/10 10:22:01;;;;;;;12.95;4.85;;;31.40;1.00;;;;;;5114095;28;20505;-75
2022/10/10 10:24:35;;;;;;;7.50;4.60;;;32.40;1.00;;;;;;5110944;28;20171;-75
2022/10/10 10:27:10;;;;;;;10.45;5.28;;;33.50;1.00;;;;;;5092179;28;20286;-76
2022/10/10 10:29:36;;;;;;;9.63;5.47;;;34.10;1.00;;;;;;5085600;28;20521;-75
2022/10/10 10:32:01;;;;;;;9.65;5.18;;;34.40;1.00;;;;;;5087397;28;20649;-76
2022/10/10 10:34:29;;;;;;;7.07;4.88;;;34.10;1.00;;;;;;5092763;28;20213;-76
2022/10/10 10:37:19;;;;;;;11.15;5.40;;;34.50;1.00;;;;;;5092970;28;20214;-76
2022/10/10 10:39:54;;;;;;;8.90;4.65;;;34.60;1.00;;;;;;5072444;28;20720;-77
2022/10/10 10:42:47;;;;;;;7.97;4.47;;;35.00;1.00;;;;;;5072208;28;20167;-76
2022/10/10 10:45:39;;;;;;;9.90;5.13;;;35.80;1.00;;;;;;5078663;28;20632;-76
2022/10/10 10:48:23;;;;;;;7.13;4.90;;;35.80;1.00;;;;;;5082780;28;20198;-77
2022/10/10 10:50:53;;;;;;;7.13;4.70;;;36.00;1.00;;;;;;5091391;28;20187;-75
2022/10/10 10:53:34;;;;;;;7.13;4.22;;;36.50;1.00;;;;;;5092665;28;20171;-75
2022/10/10 10:56:03;;;;;;;8.65;4.45;;;36.80;1.00;;;;;;5095260;28;20179;-77
2022/10/10 10:58:53;;;;;;;11.98;4.95;;;37.40;1.00;;;;;;5112972;28;20421;-77
2022/10/10 11:01:36;;;;;;;11.68;4.13;;;37.00;1.00;;;;;;5081415;28;20171;-75
2022/10/10 11:04:07;;;;;;;7.55;3.92;;;36.90;1.00;;;;;;5071325;28;20167;-76
2022/10/10 11:06:52;;;;;;;7.47;4.53;;;37.20;1.00;;;;;;5075106;28;20203;-76
2022/10/10 11:09:31;;;;;;;13.27;4.68;;;36.80;1.00;;;;;;5085681;28;20274;-75
2022/10/10 11:12:14;;;;;;;9.25;4.45;;;36.40;1.00;;;;;;5091241;28;20209;-74
2022/10/10 11:14:46;;;;;;;8.68;5.10;;;36.30;1.00;;;;;;5085953;28;20706;-76
2022/10/10 11:17:37;;;;;;;7.60;4.60;;;36.70;1.00;;;;;;5087898;28;20183;-76
2022/10/10 11:20:26;;;;;;;8.50;3.97;;;35.80;1.00;;;;;;5080173;28;20203;-76
2022/10/10 11:23:06;;;;;;;7.30;4.07;;;36.60;1.00;;;;;;5090302;28;20175;-76
2022/10/10 11:25:54;;;;;;;6.35;3.78;;;37.60;1.00;;;;;;5077142;28;20211;-78
2022/10/10 11:28:38;;;;;;;7.68;3.97;;;38.60;1.00;;;;;;5084906;28;20169;-78
2022/10/10 11:31:26;;;;;;;8.02;3.58;;;39.30;1.00;;;;;;5089771;28;20171;-76
2022/10/10 11:33:58;;;;;;;10.15;3.92;;;38.40;1.00;;;;;;5083076;28;20168;-80
2022/10/10 11:36:33;;;;;;;10.68;3.55;;;37.30;1.00;;;;;;5088641;28;20222;-76
2022/10/10 11:39:28;;;;;;;11.98;3.70;;;37.20;1.00;;;;;;5089323;28;20560;-75
2022/10/10 11:42:10;;;;;;;9.75;3.22;;;37.00;1.00;;;;;;5087437;28;20171;-77
2022/10/10 11:44:42;;;;;;;7.47;3.38;;;37.20;1.00;;;;;;5089788;28;20202;-76
2022/10/10 11:47:41;;;;;;;11.93;3.70;;;36.90;1.00;;;;;;5092783;28;20242;-76
2022/10/10 11:50:21;;;;;;;6.55;3.60;;;36.00;1.00;;;;;;5083558;28;20187;-77
2022/10/10 11:53:00;;;;;;;7.28;3.40;;;36.10;1.00;;;;;;5083273;28;20183;-76
2022/10/10 11:55:43;;;;;;;6.85;3.10;;;34.70;1.00;;;;;;5077264;28;20184;-77
2022/10/10 11:58:08;;;;;;;7.65;3.28;;;35.00;1.00;;;;;;5085955;28;20285;-77
2022/10/10 12:00:39;;;;;;;12.55;3.42;;;35.60;1.00;;;;;;5083070;28;20266;-77
2022/10/10 12:03:07;;;;;;;7.85;3.20;;;36.60;1.00;;;;;;5084306;28;20224;-77
2022/10/10 12:05:37;;;;;;;5.88;3.25;;;36.80;1.00;;;;;;5089842;28;20179;-77
2022/10/10 12:08:27;;;;;;;7.13;3.00;;;37.10;1.00;;;;;;5081988;28;20183;-76
2022/10/10 12:10:59;;;;;;;8.25;3.35;;;37.30;1.00;;;;;;5089352;28;20715;-76
2022/10/10 12:13:36;;;;;;;10.27;3.75;;;34.40;1.00;;;;;;5080205;28;20179;-77
2022/10/10 12:16:06;;;;;;;7.63;3.60;;;31.00;1.00;;;;;;5076729;28;20222;-75
2022/10/10 12:18:38;;;;;;;11.50;3.58;;;28.90;1.00;;;;;;5085961;28;20175;-77
2022/10/10 12:21:16;;;;;;;5.72;3.05;;;28.30;1.00;;;;;;5079861;28;20172;-73
2022/10/10 12:24:11;;;;;;;13.90;4.17;;;27.50;1.00;;;;;;5086422;28;20171;-76
2022/10/10 12:26:51;;;;;;;12.23;4.00;;;26.80;1.00;;;;;;5089949;28;20207;-75
2022/10/10 12:29:39;;;;;;;9.30;3.67;;;29.10;1.00;;;;;;5073335;28;20203;-79
2022/10/10 12:32:13;;;;;;;6.13;3.58;;;31.30;1.00;;;;;;5084468;28;20179;-76
2022/10/10 12:34:48;;;;;;;9.23;3.22;;;32.70;1.00;;;;;;5086069;28;20246;-74
2022/10/10 12:37:33;;;;;;;12.43;3.45;;;34.40;1.00;;;;;;5084624;28;20170;-78
2022/10/10 12:40:02;;;;;;;7.70;3.17;;;35.50;1.00;;;;;;5089215;28;20195;-76
2022/10/10 12:42:46;;;;;;;7.38;3.28;;;35.30;1.00;;;;;;5085692;28;20650;-78
2022/10/10 12:45:30;;;;;;;9.32;3.55;;;35.60;1.00;;;;;;5077332;28;20191;-74
2022/10/10 12:48:18;;;;;;;9.40;3.33;;;36.30;1.00;;;;;;5080282;28;20214;-77
2022/10/10 12:50:57;;;;;;;12.93;3.95;;;35.30;1.00;;;;;;5085647;28;20206;-77
2022/10/10 12:53:25;;;;;;;9.10;3.78;;;33.80;1.00;;;;;;5089587;28;20164;-76
2022/10/10 12:55:56;;;;;;;8.93;3.67;;;34.40;1.00;;;;;;5085745;28;20267;-77
2022/10/10 12:58:29;;;;;;;7.78;2.97;;;35.30;1.00;;;;;;5086938;28;20655;-76
2022/10/10 13:00:58;;;;;;;11.30;4.22;;;36.10;1.00;;;;;;5076390;28;20202;-77
2022/10/10 13:03:34;;;;;;;14.50;3.67;;;37.10;1.00;;;;;;5087807;28;20578;-76
2022/10/10 13:06:37;;;;;;;13.73;3.92;;;37.20;1.00;;;;;;5069730;28;20156;-76
2022/10/10 13:09:17;;;;;;;13.80;3.58;;;36.00;1.00;;;;;;5079322;28;20244;-77
2022/10/10 13:12:01;;;;;;;11.90;3.78;;;35.60;1.00;;;;;;5087581;28;20212;-75
2022/10/10 13:14:45;;;;;;;10.07;3.80;;;34.60;1.00;;;;;;5076671;28;20222;-77
2022/10/10 13:17:19;;;;;;;10.57;3.65;;;33.10;1.00;;;;;;5076397;28;20187;-76